Time;durP1;ratioP1;P1;durP2;ratioP2;P2;SDS_P1;SDS_P2;PMS_P1;PMS_P2;Temp;Humidity;BMP_temperature;BMP_pressure;BME280_temperature;BME280_humidity;BME280_pressure;Samples;Min_cycle;Max_cycle;Signal;HPM_P1;HPM_P2
2022/04/15 00:02:13;;;;;;;;;;;;;;;;;;5074338;28;28255;-84
2022/04/15 00:04:38;;;;;;;;;;;;;;;;;;5073910;27;28326;-84
2022/04/15 00:07:04;;;;;;;;;;;;;;;;;;5073800;28;28317;-83
2022/04/15 00:09:30;;;;;;;;;;;;;;;;;;5073954;28;28375;-84
2022/04/15 00:11:56;;;;;;;;;;;;;;;;;;5074244;28;28391;-83
2022/04/15 00:14:21;;;;;;;;;;;;;;;;;;5073466;28;28317;-84
2022/04/15 00:16:46;;;;;;;;;;;;;;;;;;5073805;28;28566;-84
2022/04/15 00:19:11;;;;;;;;;;;;;;;;;;5073825;28;28338;-84
2022/04/15 00:21:36;;;;;;;;;;;;;;;;;;5073961;28;28282;-83
2022/04/15 00:24:01;;;;;;;;;;;;;;;;;;5073649;28;28549;-83
2022/04/15 00:26:27;;;;;;;;;;;;;;;;;;5073930;28;28373;-84
2022/04/15 00:28:52;;;;;;;;;;;;;;;;;;5073774;28;28449;-83
2022/04/15 00:31:17;;;;;;;;;;;;;;;;;;5073628;28;28402;-83
2022/04/15 00:33:42;;;;;;;;;;;;;;;;;;5073941;28;28292;-83
2022/04/15 00:36:07;;;;;;;;;;;;;;;;;;5073622;28;28484;-83
2022/04/15 00:38:34;;;;;;;;;;;;;;;;;;5073696;28;28247;-83
2022/04/15 00:40:59;;;;;;;;;;;;;;;;;;5073812;28;28637;-85
2022/04/15 00:43:24;;;;;;;;;;;;;;;;;;5073336;28;28447;-83
2022/04/15 00:45:49;;;;;;;;;;;;;;;;;;5073677;28;28329;-83
2022/04/15 00:48:16;;;;;;;;;;;;;;;;;;5073229;28;28468;-83
2022/04/15 00:50:41;;;;;;;;;;;;;;;;;;5073606;28;28328;-83
2022/04/15 00:53:06;;;;;;;;;;;;;;;;;;5073382;28;28596;-83
2022/04/15 00:55:32;;;;;;;;;;;;;;;;;;5073233;28;28379;-83
2022/04/15 00:57:57;;;;;;;;;;;;;;;;;;5073147;28;28385;-83
2022/04/15 01:00:22;;;;;;;;;;;;;;;;;;5073234;28;28563;-83
2022/04/15 01:02:47;;;;;;;;;;;;;;;;;;5073467;28;29451;-83
2022/04/15 01:05:12;;;;;;;;;;;;;;;;;;5073058;27;28326;-83
2022/04/15 01:07:37;;;;;;;;;;;;;;;;;;5073218;28;28341;-83
2022/04/15 01:10:02;;;;;;;;;;;;;;;;;;5073535;28;28443;-83
2022/04/15 01:12:27;;;;;;;;;;;;;;;;;;5073169;28;28694;-83
2022/04/15 01:14:52;;;;;;;;;;;;;;;;;;5073044;28;28344;-83
2022/04/15 01:17:17;;;;;;;;;;;;;;;;;;5072853;28;28452;-83
2022/04/15 01:19:43;;;;;;;;;;;;;;;;;;5073231;28;28359;-83
2022/04/15 01:22:08;;;;;;;;;;;;;;;;;;5071894;28;28407;-83
2022/04/15 01:24:33;;;;;;;;;;;;;;;;;;5072991;28;28333;-83
2022/04/15 01:26:58;;;;;;;;;;;;;;;;;;5073339;28;28374;-83
2022/04/15 01:29:23;;;;;;;;;;;;;;;;;;5073072;28;28391;-83
2022/04/15 01:31:48;;;;;;;;;;;;;;;;;;5072781;28;28470;-83
2022/04/15 01:34:13;;;;;;;;;;;;;;;;;;5072952;28;28484;-83
2022/04/15 01:36:38;;;;;;;;;;;;;;;;;;5073038;28;28329;-83
2022/04/15 01:39:03;;;;;;;;;;;;;;;;;;5073030;28;28498;-83
2022/04/15 01:41:28;;;;;;;;;;;;;;;;;;5072767;28;28439;-83
2022/04/15 01:43:53;;;;;;;;;;;;;;;;;;5072863;28;28376;-83
2022/04/15 01:46:19;;;;;;;;;;;;;;;;;;5072607;28;28506;-83
2022/04/15 01:48:44;;;;;;;;;;;;;;;;;;5073037;28;28322;-83
2022/04/15 01:51:09;;;;;;;;;;;;;;;;;;5072870;28;28304;-83
2022/04/15 01:53:34;;;;;;;;;;;;;;;;;;5072531;28;28400;-83
2022/04/15 01:55:59;;;;;;;;;;;;;;;;;;5072806;28;28323;-84
2022/04/15 01:58:24;;;;;;;;;;;;;;;;;;5072576;28;28307;-84
2022/04/15 02:00:49;;;;;;;;;;;;;;;;;;5072349;28;28437;-84
2022/04/15 02:03:14;;;;;;;;;;;;;;;;;;5072996;28;31486;-83
2022/04/15 02:05:39;;;;;;;;;;;;;;;;;;5072434;28;28337;-84
2022/04/15 02:08:04;;;;;;;;;;;;;;;;;;5072653;28;28338;-84
2022/04/15 02:10:30;;;;;;;;;;;;;;;;;;5071397;28;28293;-84
2022/04/15 02:12:55;;;;;;;;;;;;;;;;;;5072483;28;28315;-84
2022/04/15 02:15:20;;;;;;;;;;;;;;;;;;5072181;28;28433;-84
2022/04/15 02:17:45;;;;;;;;;;;;;;;;;;5072362;28;35733;-84
2022/04/15 02:20:13;;;;;;;;;;;;;;;;;;5072331;28;28319;-84
2022/04/15 02:22:38;;;;;;;;;;;;;;;;;;5072270;28;28246;-83
2022/04/15 02:25:03;;;;;;;;;;;;;;;;;;5072353;28;28349;-83
2022/04/15 02:27:28;;;;;;;;;;;;;;;;;;5071255;28;28535;-84
2022/04/15 02:29:53;;;;;;;;;;;;;;;;;;5072030;28;29320;-83
2022/04/15 02:32:19;;;;;;;;;;;;;;;;;;5072073;28;28249;-84
2022/04/15 02:34:44;;;;;;;;;;;;;;;;;;5072259;28;27801;-84
2022/04/15 02:37:09;;;;;;;;;;;;;;;;;;5072463;28;27765;-83
2022/04/15 02:39:34;;;;;;;;;;;;;;;;;;5071892;28;28392;-83
2022/04/15 02:42:00;;;;;;;;;;;;;;;;;;5071917;28;28390;-83
2022/04/15 02:44:25;;;;;;;;;;;;;;;;;;5072011;28;28346;-83
2022/04/15 02:46:52;;;;;;;;;;;;;;;;;;5072102;28;28286;-83
2022/04/15 02:49:17;;;;;;;;;;;;;;;;;;5072116;28;28316;-83
2022/04/15 02:51:42;;;;;;;;;;;;;;;;;;5071827;28;27784;-82
2022/04/15 02:54:08;;;;;;;;;;;;;;;;;;5071789;28;28381;-82
2022/04/15 02:56:33;;;;;;;;;;;;;;;;;;5071769;28;28452;-82
2022/04/15 02:58:58;;;;;;;;;;;;;;;;;;5071666;28;29498;-82
2022/04/15 03:01:23;;;;;;;;;;;;;;;;;;5071635;28;28581;-82
2022/04/15 03:03:48;;;;;;;;;;;;;;;;;;5071585;28;28409;-82
2022/04/15 03:06:13;;;;;;;;;;;;;;;;;;5071447;28;28503;-82
2022/04/15 03:08:38;;;;;;;;;;;;;;;;;;5071422;28;29443;-82
2022/04/15 03:11:04;;;;;;;;;;;;;;;;;;5071354;28;28480;-82
2022/04/15 03:13:29;;;;;;;;;;;;;;;;;;5071672;28;27842;-82
2022/04/15 03:15:54;;;;;;;;;;;;;;;;;;5071575;28;27832;-82
2022/04/15 03:18:19;;;;;;;;;;;;;;;;;;5071246;28;28351;-82
2022/04/15 03:20:45;;;;;;;;;;;;;;;;;;5072767;28;28258;-82
2022/04/15 03:23:10;;;;;;;;;;;;;;;;;;5074588;28;28323;-83
2022/04/15 03:25:35;;;;;;;;;;;;;;;;;;5074523;28;28533;-82
2022/04/15 03:28:00;;;;;;;;;;;;;;;;;;5054678;27;28561;-83
2022/04/15 03:30:26;;;;;;;;;;;;;;;;;;5062511;27;28550;-83
2022/04/15 03:32:51;;;;;;;;;;;;;;;;;;5054048;27;28321;-82
2022/04/15 03:35:20;;;;;;;;;;;;;;;;;;5062580;27;28522;-82
2022/04/15 03:37:45;;;;;;;;;;;;;;;;;;5074421;28;28505;-82
2022/04/15 03:40:10;;;;;;;;;;;;;;;;;;5072348;28;28455;-83
2022/04/15 03:42:35;;;;;;;;;;;;;;;;;;5074268;28;28502;-83
2022/04/15 03:45:00;;;;;;;;;;;;;;;;;;5074303;28;28403;-83
2022/04/15 03:47:25;;;;;;;;;;;;;;;;;;5073837;28;28513;-83
2022/04/15 03:49:50;;;;;;;;;;;;;;;;;;5062780;28;28408;-83
2022/04/15 03:52:16;;;;;;;;;;;;;;;;;;5054308;27;28384;-83
2022/04/15 03:54:41;;;;;;;;;;;;;;;;;;5054151;27;28333;-83
2022/04/15 03:57:06;;;;;;;;;;;;;;;;;;5053740;27;29196;-83
2022/04/15 03:59:31;;;;;;;;;;;;;;;;;;5053825;27;28456;-82
2022/04/15 04:01:56;;;;;;;;;;;;;;;;;;5068405;27;28505;-83
2022/04/15 04:04:21;;;;;;;;;;;;;;;;;;5073303;28;28451;-83
2022/04/15 04:06:46;;;;;;;;;;;;;;;;;;5073822;28;28500;-83
2022/04/15 04:09:12;;;;;;;;;;;;;;;;;;5073751;28;28457;-83
2022/04/15 04:11:37;;;;;;;;;;;;;;;;;;5074013;28;28378;-83
2022/04/15 04:14:02;;;;;;;;;;;;;;;;;;5074347;28;28438;-83
2022/04/15 04:16:27;;;;;;;;;;;;;;;;;;5070042;28;28459;-83
2022/04/15 04:18:52;;;;;;;;;;;;;;;;;;5053887;27;28505;-82
2022/04/15 04:21:19;;;;;;;;;;;;;;;;;;5053625;28;28470;-82
2022/04/15 04:23:44;;;;;;;;;;;;;;;;;;5053627;27;28440;-83
2022/04/15 04:26:09;;;;;;;;;;;;;;;;;;5053671;28;28939;-83
2022/04/15 04:28:34;;;;;;;;;;;;;;;;;;5053489;27;28236;-83
2022/04/15 04:31:00;;;;;;;;;;;;;;;;;;5053893;27;28329;-82
2022/04/15 04:33:25;;;;;;;;;;;;;;;;;;5052886;27;28566;-82
2022/04/15 04:35:50;;;;;;;;;;;;;;;;;;5053609;27;29282;-82
2022/04/15 04:38:15;;;;;;;;;;;;;;;;;;5053436;27;28456;-82
2022/04/15 04:40:40;;;;;;;;;;;;;;;;;;5053671;27;28258;-82
2022/04/15 04:43:05;;;;;;;;;;;;;;;;;;5053770;27;28500;-82
2022/04/15 04:45:30;;;;;;;;;;;;;;;;;;5053168;27;28345;-83
2022/04/15 04:47:55;;;;;;;;;;;;;;;;;;5053522;27;28291;-83
2022/04/15 04:50:20;;;;;;;;;;;;;;;;;;5053500;27;28390;-84
2022/04/15 04:52:49;;;;;;;;;;;;;;;;;;5057963;27;28390;-84
2022/04/15 04:55:14;;;;;;;;;;;;;;;;;;5073355;28;28767;-82
2022/04/15 04:57:39;;;;;;;;;;;;;;;;;;5073336;28;28248;-82
2022/04/15 05:00:04;;;;;;;;;;;;;;;;;;5073313;27;28444;-83
2022/04/15 05:02:30;;;;;;;;;;;;;;;;;;5073223;28;28675;-83
2022/04/15 05:04:55;;;;;;;;;;;;;;;;;;5073252;27;29570;-83
2022/04/15 05:07:20;;;;;;;;;;;;;;;;;;5073000;28;28449;-83
2022/04/15 05:09:45;;;;;;;;;;;;;;;;;;5073216;28;27835;-83
2022/04/15 05:12:10;;;;;;;;;;;;;;;;;;5073202;28;28320;-83
2022/04/15 05:14:35;;;;;;;;;;;;;;;;;;5073197;28;28404;-83
2022/04/15 05:17:00;;;;;;;;;;;;;;;;;;5072798;28;28314;-82
2022/04/15 05:19:25;;;;;;;;;;;;;;;;;;5064828;28;28491;-82
2022/04/15 05:21:52;;;;;;;;;;;;;;;;;;5053109;27;28290;-83
2022/04/15 05:24:18;;;;;;;;;;;;;;;;;;5052971;27;28449;-82
2022/04/15 05:26:43;;;;;;;;;;;;;;;;;;5065746;27;28484;-82
2022/04/15 05:29:08;;;;;;;;;;;;;;;;;;5073095;28;28361;-82
2022/04/15 05:31:33;;;;;;;;;;;;;;;;;;5072628;28;28536;-83
2022/04/15 05:33:58;;;;;;;;;;;;;;;;;;5072710;28;29814;-82
2022/04/15 05:36:23;;;;;;;;;;;;;;;;;;5072984;28;28346;-82
2022/04/15 05:38:48;;;;;;;;;;;;;;;;;;5069355;28;28467;-83
2022/04/15 05:41:13;;;;;;;;;;;;;;;;;;5066311;28;28500;-82
2022/04/15 05:43:38;;;;;;;;;;;;;;;;;;5052091;28;29326;-82
2022/04/15 05:46:04;;;;;;;;;;;;;;;;;;5062194;27;28465;-82
2022/04/15 05:48:29;;;;;;;;;;;;;;;;;;5072847;28;28574;-82
2022/04/15 05:50:54;;;;;;;;;;;;;;;;;;5082866;27;28394;-83
2022/04/15 05:53:19;;;;;;;;;;;;;;;;;;5066762;28;28377;-82
2022/04/15 05:55:44;;;;;;;;;;;;;;;;;;5058642;27;28337;-83
2022/04/15 05:58:10;;;;;;;;;;;;;;;;;;5071764;27;28520;-82
2022/04/15 06:00:35;;;;;;;;;;;;;;;;;;5052572;28;28453;-83
2022/04/15 06:03:00;;;;;;;;;;;;;;;;;;5052284;28;28547;-85
2022/04/15 06:05:27;;;;;;;;;;;;;;;;;;5052230;28;28640;-84
2022/04/15 06:07:52;;;;;;;;;;;;;;;;;;5053569;28;28358;-85
2022/04/15 06:10:20;;;;;;;;;;;;;;;;;;5052557;28;28370;-87
2022/04/15 06:12:57;;;;;;;;;;;;;;;;;;5052468;28;29626;-87
2022/04/15 06:15:22;;;;;;;;;;;;;;;;;;5052365;28;28425;-86
2022/04/15 06:17:47;;;;;;;;;;;;;;;;;;5051917;27;28263;-84
2022/04/15 06:20:13;;;;;;;;;;;;;;;;;;5052596;27;28798;-84
2022/04/15 06:22:38;;;;;;;;;;;;;;;;;;5052162;27;28514;-84
2022/04/15 06:25:03;;;;;;;;;;;;;;;;;;5056063;27;28474;-87
2022/04/15 06:27:28;;;;;;;;;;;;;;;;;;5072310;28;28474;-88
2022/04/15 06:29:53;;;;;;;;;;;;;;;;;;5072584;28;28431;-88
2022/04/15 06:32:18;;;;;;;;;;;;;;;;;;5072161;28;29144;-88
2022/04/15 06:34:43;;;;;;;;;;;;;;;;;;5072086;28;28423;-88
2022/04/15 06:37:08;;;;;;;;;;;;;;;;;;5072328;28;28359;-88
2022/04/15 06:39:33;;;;;;;;;;;;;;;;;;5070906;28;28550;-85
2022/04/15 06:41:59;;;;;;;;;;;;;;;;;;5071747;28;29548;-85
2022/04/15 06:44:24;;;;;;;;;;;;;;;;;;5071646;28;28455;-85
2022/04/15 06:46:49;;;;;;;;;;;;;;;;;;5071805;28;28384;-85
2022/04/15 06:49:14;;;;;;;;;;;;;;;;;;5071254;28;27737;-85
2022/04/15 06:51:39;;;;;;;;;;;;;;;;;;5067563;28;28547;-86
2022/04/15 06:54:04;;;;;;;;;;;;;;;;;;5063883;27;28613;-87
2022/04/15 06:56:29;;;;;;;;;;;;;;;;;;5079986;28;28336;-87
2022/04/15 06:58:55;;;;;;;;;;;;;;;;;;5055691;28;28517;-86
2022/04/15 07:01:20;;;;;;;;;;;;;;;;;;5054466;27;29312;-86
2022/04/15 07:03:45;;;;;;;;;;;;;;;;;;5054635;27;28325;-88
2022/04/15 07:06:10;;;;;;;;;;;;;;;;;;5072305;27;28278;-82
2022/04/15 07:08:35;;;;;;;;;;;;;;;;;;5074669;28;28494;-88
2022/04/15 07:11:02;;;;;;;;;;;;;;;;;;5074647;28;29309;-85
2022/04/15 07:13:28;;;;;;;;;;;;;;;;;;5074624;28;28447;-85
2022/04/15 07:15:53;;;;;;;;;;;;;;;;;;5074599;28;28464;-85
2022/04/15 07:18:18;;;;;;;;;;;;;;;;;;5074483;28;28552;-85
2022/04/15 07:20:43;;;;;;;;;;;;;;;;;;5076141;28;28352;-83
2022/04/15 07:23:08;;;;;;;;;;;;;;;;;;5073388;28;28354;-86
2022/04/15 07:25:34;;;;;;;;;;;;;;;;;;5063024;27;28465;-84
2022/04/15 07:28:00;;;;;;;;;;;;;;;;;;5074730;28;28548;-82
2022/04/15 07:30:27;;;;;;;;;;;;;;;;;;5074147;28;28374;-87
2022/04/15 07:32:52;;;;;;;;;;;;;;;;;;5088282;28;28425;-91
2022/04/15 07:35:17;;;;;;;;;;;;;;;;;;5077326;28;28467;-87
2022/04/15 07:37:42;;;;;;;;;;;;;;;;;;5054556;27;28391;-86
2022/04/15 07:40:07;;;;;;;;;;;;;;;;;;5054300;27;28403;-83
2022/04/15 07:42:32;;;;;;;;;;;;;;;;;;5054119;27;28342;-87
2022/04/15 07:44:57;;;;;;;;;;;;;;;;;;5053635;27;28534;-87
2022/04/15 07:47:23;;;;;;;;;;;;;;;;;;5054141;27;28572;-86
2022/04/15 07:49:50;;;;;;;;;;;;;;;;;;5055022;28;28461;-85
2022/04/15 07:52:15;;;;;;;;;;;;;;;;;;5054894;28;28408;-86
2022/04/15 07:54:42;;;;;;;;;;;;;;;;;;5054140;27;28350;-87
2022/04/15 07:57:07;;;;;;;;;;;;;;;;;;5054012;28;28243;-84
2022/04/15 07:59:32;;;;;;;;;;;;;;;;;;5053880;27;28481;-83
2022/04/15 08:01:58;;;;;;;;;;;;;;;;;;5053698;27;28373;-82
2022/04/15 08:04:23;;;;;;;;;;;;;;;;;;5170829;27;28445;-81
2022/04/15 08:06:48;;;;;;;;;;;;;;;;;;5179616;27;28338;-87
2022/04/15 08:09:13;;;;;;;;;;;;;;;;;;5106335;27;28430;-89
2022/04/15 08:11:39;;;;;;;;;;;;;;;;;;5054072;27;28332;-86
2022/04/15 08:14:04;;;;;;;;;;;;;;;;;;5054295;27;28358;-91
2022/04/15 08:16:29;;;;;;;;;;;;;;;;;;5067938;27;28438;-86
2022/04/15 08:18:57;;;;;;;;;;;;;;;;;;5053489;28;29321;-87
2022/04/15 08:21:22;;;;;;;;;;;;;;;;;;5053092;28;28529;-84
2022/04/15 08:23:47;;;;;;;;;;;;;;;;;;5053742;27;28445;-88
2022/04/15 08:26:12;;;;;;;;;;;;;;;;;;5053732;27;28577;-88
2022/04/15 08:28:38;;;;;;;;;;;;;;;;;;5053945;27;28399;-88
2022/04/15 08:31:03;;;;;;;;;;;;;;;;;;5140304;27;28476;-88
2022/04/15 08:33:28;;;;;;;;;;;;;;;;;;5055894;27;28504;-89
2022/04/15 08:35:53;;;;;;;;;;;;;;;;;;5054064;27;28486;-90
2022/04/15 08:38:18;;;;;;;;;;;;;;;;;;5054914;27;28468;-91
2022/04/15 08:40:43;;;;;;;;;;;;;;;;;;5053987;27;28505;-88
2022/04/15 08:43:09;;;;;;;;;;;;;;;;;;5053807;27;28452;-90
2022/04/15 08:45:34;;;;;;;;;;;;;;;;;;5054865;28;28408;-92
2022/04/15 08:48:00;;;;;;;;;;;;;;;;;;5143049;27;30056;-91
2022/04/15 08:50:25;;;;;;;;;;;;;;;;;;5053524;28;28634;-87
2022/04/15 08:52:50;;;;;;;;;;;;;;;;;;5053167;27;28381;-86
2022/04/15 08:55:16;;;;;;;;;;;;;;;;;;5053589;27;28478;-87
2022/04/15 08:57:41;;;;;;;;;;;;;;;;;;5053253;27;28370;-88
2022/04/15 09:00:06;;;;;;;;;;;;;;;;;;5053177;27;28322;-88
2022/04/15 09:02:32;;;;;;;;;;;;;;;;;;5072022;27;28307;-90
2022/04/15 09:04:57;;;;;;;;;;;;;;;;;;5073157;28;28484;-88
2022/04/15 09:07:22;;;;;;;;;;;;;;;;;;5073532;28;28468;-90
2022/04/15 09:09:49;;;;;;;;;;;;;;;;;;5073337;28;28388;-89
2022/04/15 09:12:14;;;;;;;;;;;;;;;;;;5060619;28;28303;-88
2022/04/15 09:14:39;;;;;;;;;;;;;;;;;;5057813;28;28374;-90
2022/04/15 09:17:05;;;;;;;;;;;;;;;;;;5073092;28;28519;-89
2022/04/15 09:19:30;;;;;;;;;;;;;;;;;;5072944;28;28373;-89
2022/04/15 09:21:55;;;;;;;;;;;;;;;;;;5073320;28;28478;-90
2022/04/15 09:24:20;;;;;;;;;;;;;;;;;;5073344;28;28493;-89
2022/04/15 09:26:46;;;;;;;;;;;;;;;;;;5073102;28;29814;-89
2022/04/15 09:29:11;;;;;;;;;;;;;;;;;;5072760;28;28578;-89
2022/04/15 09:31:36;;;;;;;;;;;;;;;;;;5074459;27;28692;-90
2022/04/15 09:34:01;;;;;;;;;;;;;;;;;;5073212;28;28378;-89
2022/04/15 09:36:27;;;;;;;;;;;;;;;;;;5072605;28;28477;-89
2022/04/15 09:38:52;;;;;;;;;;;;;;;;;;5073010;28;28324;-90
2022/04/15 09:41:17;;;;;;;;;;;;;;;;;;5050579;28;28448;-91
2022/04/15 09:43:42;;;;;;;;;;;;;;;;;;5053557;27;28825;-91
2022/04/15 09:46:07;;;;;;;;;;;;;;;;;;5057152;27;28450;-90
2022/04/15 09:48:32;;;;;;;;;;;;;;;;;;5055504;27;28379;-95
2022/04/15 09:50:57;;;;;;;;;;;;;;;;;;5075370;27;28509;-86
2022/04/15 09:53:24;;;;;;;;;;;;;;;;;;5053460;27;28533;-86
2022/04/15 09:55:50;;;;;;;;;;;;;;;;;;5054483;28;28595;-83
2022/04/15 09:58:15;;;;;;;;;;;;;;;;;;5072432;28;28631;-87
2022/04/15 10:00:40;;;;;;;;;;;;;;;;;;5072615;28;28248;-91
2022/04/15 10:03:05;;;;;;;;;;;;;;;;;;5072914;28;28462;-88
2022/04/15 10:05:30;;;;;;;;;;;;;;;;;;5060195;28;29188;-91
2022/04/15 10:07:56;;;;;;;;;;;;;;;;;;5061836;27;28373;-96
2022/04/15 10:10:21;;;;;;;;;;;;;;;;;;5149298;27;28270;-96
2022/04/15 10:12:46;;;;;;;;;;;;;;;;;;5149100;27;28507;-82
2022/04/15 10:15:11;;;;;;;;;;;;;;;;;;5052567;27;28571;-82
2022/04/15 10:17:36;;;;;;;;;;;;;;;;;;5072181;28;28387;-82
2022/04/15 10:20:01;;;;;;;;;;;;;;;;;;5072600;28;28246;-80
2022/04/15 10:22:26;;;;;;;;;;;;;;;;;;5054693;28;28541;-80
2022/04/15 10:24:51;;;;;;;;;;;;;;;;;;5052120;27;28318;-80
2022/04/15 10:27:16;;;;;;;;;;;;;;;;;;5052166;27;28234;-82
2022/04/15 10:29:41;;;;;;;;;;;;;;;;;;5052012;27;28285;-81
2022/04/15 10:32:07;;;;;;;;;;;;;;;;;;5063391;27;28549;-80
2022/04/15 10:34:32;;;;;;;;;;;;;;;;;;5071701;28;29416;-84
2022/04/15 10:36:57;;;;;;;;;;;;;;;;;;5071878;28;28259;-84
2022/04/15 10:39:22;;;;;;;;;;;;;;;;;;5072091;28;28397;-82
2022/04/15 10:41:51;;;;;;;;;;;;;;;;;;5068710;28;28456;-82
2022/04/15 10:44:16;;;;;;;;;;;;;;;;;;5071715;28;29329;-81
2022/04/15 10:46:41;;;;;;;;;;;;;;;;;;5058647;28;28147;-82
2022/04/15 10:49:06;;;;;;;;;;;;;;;;;;5090223;28;28479;-82
2022/04/15 10:51:32;;;;;;;;;;;;;;;;;;5092250;28;28448;-82
2022/04/15 10:53:57;;;;;;;;;;;;;;;;;;5092365;28;28516;-82
2022/04/15 10:56:24;;;;;;;;;;;;;;;;;;5052006;28;28541;-82
2022/04/15 11:01:13;;;;;;;;;;;;;;;;;;5051642;28;28385;-82
2022/04/15 11:01:35;;;;;;;;;;;;;;;;;;5051505;27;28330;-82
2022/04/15 11:04:00;;;;;;;;;;;;;;;;;;5062410;27;29668;-82
2022/04/15 11:06:26;;;;;;;;;;;;;;;;;;5046745;28;28591;-83
2022/04/15 11:08:51;;;;;;;;;;;;;;;;;;5071538;28;28338;-81
2022/04/15 11:11:18;;;;;;;;;;;;;;;;;;5071604;28;28305;-82
2022/04/15 11:13:44;;;;;;;;;;;;;;;;;;5071454;27;28691;-81
2022/04/15 11:16:13;;;;;;;;;;;;;;;;;;5072727;28;28225;-86
2022/04/15 11:18:38;;;;;;;;;;;;;;;;;;5075636;28;28329;-86
2022/04/15 11:21:04;;;;;;;;;;;;;;;;;;5079591;28;28456;-90
2022/04/15 11:23:29;;;;;;;;;;;;;;;;;;5085089;28;29668;-87
2022/04/15 11:25:54;;;;;;;;;;;;;;;;;;5071395;28;28549;-87
2022/04/15 11:28:19;;;;;;;;;;;;;;;;;;5075334;27;28530;-83
2022/04/15 11:30:44;;;;;;;;;;;;;;;;;;5068781;27;28553;-88
2022/04/15 11:33:09;;;;;;;;;;;;;;;;;;5051368;27;28457;-85
2022/04/15 11:35:34;;;;;;;;;;;;;;;;;;5050680;27;28421;-84
2022/04/15 11:37:59;;;;;;;;;;;;;;;;;;5051061;27;28388;-82
2022/04/15 11:40:27;;;;;;;;;;;;;;;;;;5068358;27;28391;-80
2022/04/15 11:42:52;;;;;;;;;;;;;;;;;;5070822;28;28647;-88
2022/04/15 11:45:17;;;;;;;;;;;;;;;;;;5070168;28;28242;-89
2022/04/15 11:47:42;;;;;;;;;;;;;;;;;;5068597;27;28324;-85
2022/04/15 11:50:07;;;;;;;;;;;;;;;;;;5055962;27;28227;-95
2022/04/15 11:52:32;;;;;;;;;;;;;;;;;;5060190;27;29888;-93
2022/04/15 11:54:58;;;;;;;;;;;;;;;;;;5055347;28;28512;-90
2022/04/15 11:57:23;;;;;;;;;;;;;;;;;;5055540;28;28496;-89
2022/04/15 11:59:48;;;;;;;;;;;;;;;;;;5075939;27;28330;-90
2022/04/15 12:02:25;;;;;;;;;;;;;;;;;;5072415;28;28557;-89
2022/04/15 12:04:50;;;;;;;;;;;;;;;;;;5067100;27;28564;-88
2022/04/15 12:07:15;;;;;;;;;;;;;;;;;;5066319;28;28428;-86
2022/04/15 12:09:40;;;;;;;;;;;;;;;;;;5056084;27;28512;-90
2022/04/15 12:12:08;;;;;;;;;;;;;;;;;;5107563;27;29466;-83
2022/04/15 12:14:34;;;;;;;;;;;;;;;;;;5061501;28;28589;-89
2022/04/15 12:16:59;;;;;;;;;;;;;;;;;;5076052;27;28509;-87
2022/04/15 12:19:24;;;;;;;;;;;;;;;;;;5084282;27;28433;-85
2022/04/15 12:21:49;;;;;;;;;;;;;;;;;;5120623;27;28394;-84
2022/04/15 12:24:14;;;;;;;;;;;;;;;;;;5073496;27;28393;-85
2022/04/15 12:26:39;;;;;;;;;;;;;;;;;;5072851;27;28556;-85
2022/04/15 12:31:48;;;;;;;;;;;;;;;;;;5082951;28;28360;-86
2022/04/15 12:34:14;;;;;;;;;;;;;;;;;;5082453;28;27899;-86
2022/04/15 12:36:39;;;;;;;;;;;;;;;;;;5093422;28;28353;-85
2022/04/15 12:39:04;;;;;;;;;;;;;;;;;;5076896;28;28360;-85
2022/04/15 12:41:29;;;;;;;;;;;;;;;;;;5073072;28;28487;-85
2022/04/15 12:43:55;;;;;;;;;;;;;;;;;;5072878;28;28453;-84
2022/04/15 12:46:21;;;;;;;;;;;;;;;;;;5073023;28;28289;-84
2022/04/15 12:48:46;;;;;;;;;;;;;;;;;;5073217;28;28458;-85
2022/04/15 12:51:11;;;;;;;;;;;;;;;;;;5072762;28;29392;-86
2022/04/15 12:53:36;;;;;;;;;;;;;;;;;;5082265;28;28401;-85
2022/04/15 12:56:01;;;;;;;;;;;;;;;;;;5081121;28;28879;-85
2022/04/15 12:58:26;;;;;;;;;;;;;;;;;;5072845;28;28535;-87
2022/04/15 13:00:53;;;;;;;;;;;;;;;;;;5159813;27;28379;-83
2022/04/15 13:03:18;;;;;;;;;;;;;;;;;;5178741;27;28472;-84
2022/04/15 13:05:43;;;;;;;;;;;;;;;;;;5155242;27;28466;-88
2022/04/15 13:08:09;;;;;;;;;;;;;;;;;;5093500;28;27755;-84
2022/04/15 13:10:34;;;;;;;;;;;;;;;;;;5091893;28;28569;-85
2022/04/15 13:12:59;;;;;;;;;;;;;;;;;;5089699;27;28460;-88
2022/04/15 13:15:24;;;;;;;;;;;;;;;;;;5072634;28;28493;-82
2022/04/15 13:17:49;;;;;;;;;;;;;;;;;;5072512;28;28556;-83
2022/04/15 13:20:14;;;;;;;;;;;;;;;;;;5072550;28;29942;-82
2022/04/15 13:22:39;;;;;;;;;;;;;;;;;;5071931;28;28389;-82
2022/04/15 13:25:04;;;;;;;;;;;;;;;;;;5072677;28;28443;-82
2022/04/15 13:27:31;;;;;;;;;;;;;;;;;;5072717;28;28378;-84
2022/04/15 13:29:58;;;;;;;;;;;;;;;;;;5072563;28;28908;-82
2022/04/15 13:32:23;;;;;;;;;;;;;;;;;;5072601;27;28720;-82
2022/04/15 13:34:48;;;;;;;;;;;;;;;;;;5072044;27;28543;-83
2022/04/15 13:37:13;;;;;;;;;;;;;;;;;;5069640;28;28536;-82
2022/04/15 13:39:38;;;;;;;;;;;;;;;;;;5062621;27;28459;-80
2022/04/15 13:42:03;;;;;;;;;;;;;;;;;;5072056;28;28475;-82
2022/04/15 13:44:28;;;;;;;;;;;;;;;;;;5072458;28;28437;-85
2022/04/15 13:46:54;;;;;;;;;;;;;;;;;;5072689;28;28486;-83
2022/04/15 13:49:19;;;;;;;;;;;;;;;;;;5071738;28;28677;-87
2022/04/15 13:51:44;;;;;;;;;;;;;;;;;;5071250;28;28492;-85
2022/04/15 13:56:53;;;;;;;;;;;;;;;;;;5075410;28;28433;-92
2022/04/15 13:59:18;;;;;;;;;;;;;;;;;;5057790;28;28486;-91
2022/04/15 14:01:46;;;;;;;;;;;;;;;;;;5074534;28;28440;-91
2022/04/15 14:04:11;;;;;;;;;;;;;;;;;;5075129;28;28433;-93
2022/04/15 14:06:36;;;;;;;;;;;;;;;;;;5065039;28;28271;-93
2022/04/15 14:09:02;;;;;;;;;;;;;;;;;;5076875;27;28482;-93
2022/04/15 14:11:27;;;;;;;;;;;;;;;;;;5057601;28;28458;-94
2022/04/15 14:13:55;;;;;;;;;;;;;;;;;;5074481;28;28422;-93
2022/04/15 14:16:21;;;;;;;;;;;;;;;;;;5077008;28;28362;-96
2022/04/15 14:18:49;;;;;;;;;;;;;;;;;;5163714;27;29306;-96
2022/04/15 14:21:18;;;;;;;;;;;;;;;;;;5097164;22;27946;-96
2022/04/15 14:23:46;;;;;;;;;;;;;;;;;;5036110;27;28605;-93
2022/04/15 14:26:11;;;;;;;;;;;;;;;;;;5035905;27;28474;-94
2022/04/15 14:28:36;;;;;;;;;;;;;;;;;;5013562;28;28521;-90
2022/04/15 14:31:03;;;;;;;;;;;;;;;;;;5013398;28;28337;-93
2022/04/15 14:33:28;;;;;;;;;;;;;;;;;;5014020;28;28471;-92
2022/04/15 14:35:53;;;;;;;;;;;;;;;;;;5028912;27;28402;-90
2022/04/15 14:38:18;;;;;;;;;;;;;;;;;;5018219;28;28423;-96
2022/04/15 14:40:43;;;;;;;;;;;;;;;;;;5038163;27;28438;-95
2022/04/15 14:43:08;;;;;;;;;;;;;;;;;;5040460;27;27859;-93
2022/04/15 14:45:34;;;;;;;;;;;;;;;;;;5199038;22;27866;-91
2022/04/15 14:47:59;;;;;;;;;;;;;;;;;;5118588;27;30652;-92
2022/04/15 14:50:24;;;;;;;;;;;;;;;;;;5115524;27;28346;-93
2022/04/15 14:52:49;;;;;;;;;;;;;;;;;;5117411;27;28528;-96
2022/04/15 14:55:15;;;;;;;;;;;;;;;;;;5098951;28;28464;-91
2022/04/15 14:57:40;;;;;;;;;;;;;;;;;;5098949;27;28472;-88
2022/04/15 15:00:06;;;;;;;;;;;;;;;;;;5095062;28;28661;-88
2022/04/15 15:02:31;;;;;;;;;;;;;;;;;;5093966;27;28534;-90
2022/04/15 15:04:56;;;;;;;;;;;;;;;;;;5097227;28;28534;-94
2022/04/15 15:07:21;;;;;;;;;;;;;;;;;;5099334;28;28419;-94
2022/04/15 15:09:46;;;;;;;;;;;;;;;;;;5097063;28;28743;-89
2022/04/15 15:12:12;;;;;;;;;;;;;;;;;;5097703;28;28108;-93
2022/04/15 15:14:37;;;;;;;;;;;;;;;;;;5097973;27;27867;-91
2022/04/15 15:17:02;;;;;;;;;;;;;;;;;;5098740;28;30164;-92
2022/04/15 15:19:27;;;;;;;;;;;;;;;;;;5100470;28;28546;-96
2022/04/15 15:21:52;;;;;;;;;;;;;;;;;;5100621;28;28311;-94
2022/04/15 15:29:48;;;;;;;;;;;;;;;;;;5087292;28;28366;-95
2022/04/15 15:32:13;;;;;;;;;;;;;;;;;;5099671;28;28403;-93
2022/04/15 15:34:38;;;;;;;;;;;;;;;;;;5078840;28;28339;-88
2022/04/15 15:37:03;;;;;;;;;;;;;;;;;;5077111;28;28620;-86
2022/04/15 15:39:28;;;;;;;;;;;;;;;;;;5092068;28;28589;-85
2022/04/15 15:41:54;;;;;;;;;;;;;;;;;;5097665;28;28407;-81
2022/04/15 15:44:19;;;;;;;;;;;;;;;;;;5097772;28;28489;-81
2022/04/15 15:46:45;;;;;;;;;;;;;;;;;;5097232;28;28591;-82
2022/04/15 15:49:10;;;;;;;;;;;;;;;;;;5097561;27;28461;-84
2022/04/15 15:51:36;;;;;;;;;;;;;;;;;;5096797;28;28491;-81
2022/04/15 15:54:02;;;;;;;;;;;;;;;;;;5096959;28;28397;-85
2022/04/15 15:56:30;;;;;;;;;;;;;;;;;;5093450;27;28430;-82
2022/04/15 15:58:55;;;;;;;;;;;;;;;;;;5097278;28;28451;-81
2022/04/15 16:01:20;;;;;;;;;;;;;;;;;;5092547;28;28926;-81
2022/04/15 16:03:45;;;;;;;;;;;;;;;;;;5097059;27;28473;-85
2022/04/15 16:06:10;;;;;;;;;;;;;;;;;;5097140;28;28469;-83
2022/04/15 16:08:35;;;;;;;;;;;;;;;;;;5097308;28;28446;-85
2022/04/15 16:11:01;;;;;;;;;;;;;;;;;;5097114;28;28440;-81
2022/04/15 16:13:26;;;;;;;;;;;;;;;;;;5096157;28;28521;-82
2022/04/15 16:15:51;;;;;;;;;;;;;;;;;;5097047;28;28499;-85
2022/04/15 16:18:16;;;;;;;;;;;;;;;;;;5096645;28;28507;-84
2022/04/15 16:20:41;;;;;;;;;;;;;;;;;;5096552;28;28512;-83
2022/04/15 16:23:06;;;;;;;;;;;;;;;;;;5096524;28;28543;-82
2022/04/15 16:25:31;;;;;;;;;;;;;;;;;;5096057;28;29036;-84
2022/04/15 16:27:56;;;;;;;;;;;;;;;;;;5095968;27;28537;-85
2022/04/15 16:30:22;;;;;;;;;;;;;;;;;;5096885;27;28466;-83
2022/04/15 16:32:47;;;;;;;;;;;;;;;;;;5097354;28;28496;-83
2022/04/15 16:35:12;;;;;;;;;;;;;;;;;;5096832;28;29345;-85
2022/04/15 16:37:37;;;;;;;;;;;;;;;;;;5095928;28;28547;-83
2022/04/15 16:40:02;;;;;;;;;;;;;;;;;;5096353;28;28482;-81
2022/04/15 16:42:27;;;;;;;;;;;;;;;;;;5097127;28;28388;-83
2022/04/15 16:44:52;;;;;;;;;;;;;;;;;;5097132;28;28430;-85